createdAt,value
2022-09-12T00:00:40.590Z,0
2022-09-12T00:01:44.039Z,0
2022-09-12T00:02:47.061Z,0
2022-09-12T00:04:21.580Z,0
2022-09-12T00:05:24.212Z,0
2022-09-12T00:06:33.785Z,0
2022-09-12T00:08:08.452Z,0
2022-09-12T00:09:11.217Z,0
2022-09-12T00:10:13.875Z,0
2022-09-12T00:11:48.516Z,0
2022-09-12T00:12:51.148Z,0
2022-09-12T00:13:58.577Z,0
2022-09-12T00:15:33.139Z,0
2022-09-12T00:16:36.501Z,0
2022-09-12T00:17:39.174Z,0
2022-09-12T00:19:14.145Z,0
2022-09-12T00:20:16.987Z,0
2022-09-12T00:21:19.637Z,0
2022-09-12T00:22:54.199Z,0
2022-09-12T00:23:57.183Z,0
2022-09-12T00:24:59.861Z,0
2022-09-12T00:26:34.460Z,0
2022-09-12T00:27:37.526Z,0
2022-09-12T00:28:40.513Z,0
2022-09-12T00:30:15.033Z,0
2022-09-12T00:31:17.959Z,0
2022-09-12T00:32:20.916Z,0
2022-09-12T00:33:55.412Z,0
2022-09-12T00:34:58.106Z,0
2022-09-12T00:36:00.772Z,0
2022-09-12T00:37:35.529Z,0
2022-09-12T00:38:38.215Z,0
2022-09-12T00:39:40.997Z,0
2022-09-12T00:41:15.805Z,0
2022-09-12T00:42:18.586Z,0
2022-09-12T00:43:21.407Z,0
2022-09-12T00:44:56.006Z,0
2022-09-12T00:45:58.935Z,0
2022-09-12T00:47:01.712Z,0
2022-09-12T00:48:36.446Z,0
2022-09-12T00:49:39.106Z,0
2022-09-12T00:50:41.829Z,0
2022-09-12T00:52:16.342Z,0
2022-09-12T00:53:19.122Z,0
2022-09-12T00:54:21.976Z,0
2022-09-12T00:55:56.460Z,0
2022-09-12T00:56:59.232Z,0
2022-09-12T00:58:02.148Z,0
2022-09-12T00:59:36.700Z,0
2022-09-12T01:00:40.039Z,0
2022-09-12T01:01:49.577Z,0
2022-09-12T01:02:52.576Z,0
2022-09-12T01:04:26.883Z,0
2022-09-12T01:05:29.547Z,0
2022-09-12T01:06:32.291Z,0
2022-09-12T01:08:08.425Z,0
2022-09-12T01:09:11.425Z,0
2022-09-12T01:10:14.365Z,0
2022-09-12T01:11:48.967Z,0
2022-09-12T01:12:51.828Z,0
2022-09-12T01:13:54.534Z,0
2022-09-12T01:15:29.032Z,0
2022-09-12T01:16:31.997Z,0
2022-09-12T01:17:34.846Z,0
2022-09-12T01:19:09.675Z,0
2022-09-12T01:20:12.450Z,0
2022-09-12T01:21:15.189Z,0
2022-09-12T01:22:49.740Z,0
2022-09-12T01:23:52.602Z,0
2022-09-12T01:24:55.304Z,0
2022-09-12T01:26:29.986Z,0
2022-09-12T01:27:32.803Z,0
2022-09-12T01:28:35.821Z,0
2022-09-12T01:30:10.444Z,0
2022-09-12T01:31:13.242Z,0
2022-09-12T01:32:16.364Z,0
2022-09-12T01:33:50.745Z,0
2022-09-12T01:34:53.697Z,0
2022-09-12T01:35:56.627Z,0
2022-09-12T01:37:31.455Z,0
2022-09-12T01:38:34.145Z,0
2022-09-12T01:39:37.189Z,0
2022-09-12T01:41:12.010Z,0
2022-09-12T01:42:14.811Z,0
2022-09-12T01:43:17.484Z,0
2022-09-12T01:44:51.966Z,0
2022-09-12T01:45:55.211Z,0
2022-09-12T01:46:57.988Z,0
2022-09-12T01:48:32.541Z,0
2022-09-12T01:49:35.260Z,0
2022-09-12T01:50:38.061Z,0
2022-09-12T01:52:12.628Z,0
2022-09-12T01:53:15.340Z,0
2022-09-12T01:54:18.027Z,0
2022-09-12T01:55:52.407Z,0
2022-09-12T01:56:55.153Z,0
2022-09-12T01:57:57.854Z,0
2022-09-12T01:59:32.548Z,0
2022-09-12T02:00:39.942Z,0
2022-09-12T02:01:42.852Z,0
2022-09-12T02:02:45.833Z,0
2022-09-12T02:04:20.473Z,0
2022-09-12T02:05:23.389Z,0
2022-09-12T02:06:26.349Z,0
2022-09-12T02:08:00.997Z,0
2022-09-12T02:09:04.262Z,0
2022-09-12T02:10:06.993Z,0
2022-09-12T02:11:46.710Z,0
2022-09-12T02:12:49.430Z,0
2022-09-12T02:13:52.160Z,0
2022-09-12T02:15:26.627Z,0
2022-09-12T02:16:29.596Z,0
2022-09-12T02:17:32.564Z,0
2022-09-12T02:19:07.182Z,0
2022-09-12T02:20:14.608Z,0
2022-09-12T02:21:23.961Z,0
2022-09-12T02:22:58.371Z,0
2022-09-12T02:24:01.131Z,0
2022-09-12T02:25:03.761Z,0
2022-09-12T02:26:38.409Z,0
2022-09-12T02:27:41.263Z,0
2022-09-12T02:28:44.073Z,0
2022-09-12T02:30:18.648Z,0
2022-09-12T02:31:21.437Z,0
2022-09-12T02:32:24.196Z,0
2022-09-12T02:33:58.799Z,0
2022-09-12T02:35:01.583Z,0
2022-09-12T02:36:04.417Z,0
2022-09-12T02:37:39.083Z,0
2022-09-12T02:38:41.739Z,0
2022-09-12T02:39:50.771Z,0
2022-09-12T02:41:25.610Z,0
2022-09-12T02:42:28.435Z,0
2022-09-12T02:43:31.321Z,0
2022-09-12T02:45:05.798Z,0
2022-09-12T02:46:08.877Z,0
2022-09-12T02:47:11.543Z,0
2022-09-12T02:48:47.250Z,0
2022-09-12T02:49:49.904Z,0
2022-09-12T02:50:52.944Z,0
2022-09-12T02:52:31.890Z,0
2022-09-12T02:53:34.880Z,0
2022-09-12T02:54:37.793Z,0
2022-09-12T02:56:12.379Z,0
2022-09-12T02:57:14.973Z,0
2022-09-12T02:58:17.813Z,0
2022-09-12T02:59:52.406Z,0
2022-09-12T03:00:40.635Z,0
2022-09-12T03:01:43.786Z,0
2022-09-12T03:02:46.815Z,0
2022-09-12T03:04:21.204Z,0
2022-09-12T03:05:24.072Z,0
2022-09-12T03:06:26.740Z,0
2022-09-12T03:08:01.267Z,0
2022-09-12T03:09:04.238Z,0
2022-09-12T03:10:06.953Z,0
2022-09-12T03:11:41.499Z,0
2022-09-12T03:12:44.332Z,0
2022-09-12T03:13:47.214Z,0
2022-09-12T03:15:21.698Z,0
2022-09-12T03:16:24.953Z,0
2022-09-12T03:17:27.776Z,0
2022-09-12T03:19:02.738Z,0
2022-09-12T03:20:05.564Z,0
2022-09-12T03:21:08.314Z,0
2022-09-12T03:22:42.931Z,0
2022-09-12T03:23:45.681Z,0
2022-09-12T03:24:48.370Z,0
2022-09-12T03:26:22.878Z,0
2022-09-12T03:27:25.579Z,0
2022-09-12T03:28:28.379Z,0
2022-09-12T03:30:02.860Z,0
2022-09-12T03:31:06.158Z,0
2022-09-12T03:32:09.139Z,0
2022-09-12T03:33:44.182Z,0
2022-09-12T03:34:46.917Z,0
2022-09-12T03:35:51.215Z,0
2022-09-12T03:37:25.747Z,0
2022-09-12T03:38:28.641Z,0
2022-09-12T03:39:31.457Z,0
2022-09-12T03:41:11.477Z,0
2022-09-12T03:42:14.164Z,0
2022-09-12T03:43:16.937Z,0
2022-09-12T03:44:51.609Z,0
2022-09-12T03:45:54.771Z,0
2022-09-12T03:46:57.657Z,0
2022-09-12T03:48:32.273Z,0
2022-09-12T03:49:35.008Z,0
2022-09-12T03:50:37.727Z,0
2022-09-12T03:52:12.174Z,0
2022-09-12T03:53:18.570Z,0
2022-09-12T03:54:21.287Z,0
2022-09-12T03:55:55.656Z,0
2022-09-12T03:56:58.351Z,0
2022-09-12T03:58:01.190Z,0
2022-09-12T03:59:35.901Z,0
2022-09-12T04:00:45.888Z,0
2022-09-12T04:01:48.860Z,0
2022-09-12T04:02:52.292Z,0
2022-09-12T04:04:26.852Z,0
2022-09-12T04:06:11.360Z,0
2022-09-12T04:07:14.222Z,0
2022-09-12T04:08:17.316Z,0
2022-09-12T04:09:52.437Z,0
2022-09-12T04:10:55.557Z,0
2022-09-12T04:11:58.534Z,0
2022-09-12T04:13:33.481Z,0
2022-09-12T04:14:36.501Z,0
2022-09-12T04:15:39.449Z,0
2022-09-12T04:17:14.688Z,0
2022-09-12T04:18:22.905Z,0
2022-09-12T04:19:26.113Z,0
2022-09-12T04:21:01.078Z,0
2022-09-12T04:22:04.162Z,0
2022-09-12T04:23:07.368Z,0
2022-09-12T04:24:42.210Z,0
2022-09-12T04:25:45.156Z,0
2022-09-12T04:26:48.082Z,0
2022-09-12T04:28:22.871Z,0
2022-09-12T04:29:25.749Z,0
2022-09-12T04:30:28.941Z,0
2022-09-12T04:32:04.198Z,0
2022-09-12T04:33:13.162Z,0
2022-09-12T04:34:16.220Z,0
2022-09-12T04:35:51.058Z,0
2022-09-12T04:36:54.232Z,0
2022-09-12T04:37:57.047Z,0
2022-09-12T04:39:31.908Z,0
2022-09-12T04:40:34.805Z,0
2022-09-12T04:41:37.729Z,0
2022-09-12T04:43:18.015Z,0
2022-09-12T04:44:20.975Z,0
2022-09-12T04:45:23.731Z,0
2022-09-12T04:46:58.626Z,0
2022-09-12T04:48:01.400Z,0
2022-09-12T04:49:08.464Z,0
2022-09-12T04:50:43.227Z,0
2022-09-12T04:51:46.289Z,0
2022-09-12T04:52:49.391Z,0
2022-09-12T04:54:24.172Z,0
2022-09-12T04:55:27.097Z,0
2022-09-12T04:56:29.733Z,0
2022-09-12T04:58:04.778Z,0
2022-09-12T04:59:07.584Z,0
2022-09-12T05:00:40.774Z,0
2022-09-12T05:01:44.288Z,0
2022-09-12T05:02:47.810Z,0
2022-09-12T05:04:22.881Z,0
2022-09-12T05:05:25.937Z,0
2022-09-12T05:06:29.017Z,0
2022-09-12T05:08:04.099Z,0
2022-09-12T05:09:07.294Z,0
2022-09-12T05:10:10.575Z,0
2022-09-12T05:12:22.874Z,0
2022-09-12T05:13:25.798Z,0
2022-09-12T05:14:28.737Z,0
2022-09-12T05:16:03.386Z,0
2022-09-12T05:17:11.922Z,0
2022-09-12T05:18:14.767Z,0
2022-09-12T05:19:49.732Z,0
2022-09-12T05:20:52.535Z,0
2022-09-12T05:21:55.502Z,0
2022-09-12T05:23:30.245Z,0
2022-09-12T05:24:33.029Z,0
2022-09-12T05:25:35.862Z,0
2022-09-12T05:27:10.527Z,0
2022-09-12T05:28:18.592Z,0
2022-09-12T05:29:21.482Z,0
2022-09-12T05:30:56.811Z,0
2022-09-12T05:31:59.679Z,0
2022-09-12T05:33:02.567Z,0
2022-09-12T05:34:39.782Z,0
2022-09-12T05:35:42.762Z,0
2022-09-12T05:36:45.639Z,0
2022-09-12T05:38:20.200Z,0
2022-09-12T05:39:23.321Z,0
2022-09-12T05:40:26.613Z,0
2022-09-12T05:42:01.458Z,0
2022-09-12T05:43:04.238Z,0
2022-09-12T05:44:06.980Z,0
2022-09-12T05:45:42.329Z,0
2022-09-12T05:46:45.417Z,0
2022-09-12T05:47:48.511Z,0
2022-09-12T05:49:25.091Z,0
2022-09-12T05:50:27.991Z,0
2022-09-12T05:51:30.775Z,0
2022-09-12T05:53:05.761Z,0
2022-09-12T05:54:08.885Z,0
2022-09-12T05:55:11.776Z,0.435
2022-09-12T05:56:46.606Z,0
2022-09-12T05:57:49.387Z,0
2022-09-12T05:58:52.645Z,0
2022-09-12T06:00:44.784Z,0
2022-09-12T06:01:48.532Z,0.435
2022-09-12T06:02:52.028Z,0
2022-09-12T06:04:26.567Z,0.435
2022-09-12T06:05:29.469Z,0.435
2022-09-12T06:06:32.515Z,0
2022-09-12T06:08:07.336Z,0.435
2022-09-12T06:09:10.919Z,0.435
2022-09-12T06:10:13.761Z,0.435
2022-09-12T06:11:48.534Z,0.435
2022-09-12T06:12:51.449Z,0.435
2022-09-12T06:13:54.369Z,0.435
2022-09-12T06:15:29.084Z,0.435
2022-09-12T06:16:32.370Z,0.435
2022-09-12T06:17:35.431Z,0.435
2022-09-12T06:19:10.652Z,0.435
2022-09-12T06:20:13.662Z,0.435
2022-09-12T06:21:16.663Z,0.435
2022-09-12T06:22:51.389Z,0.435
2022-09-12T06:23:54.729Z,0.435
2022-09-12T06:25:03.487Z,0.435
2022-09-12T06:26:38.659Z,0.435
2022-09-12T06:27:41.436Z,0.435
2022-09-12T06:28:44.586Z,0.435
2022-09-12T06:30:22.339Z,0.435
2022-09-12T06:31:28.508Z,0.435
2022-09-12T06:32:31.595Z,0.435
2022-09-12T06:34:06.571Z,0.435
2022-09-12T06:35:09.664Z,0.435
2022-09-12T06:36:18.203Z,0.435
2022-09-12T06:37:52.944Z,0.435
2022-09-12T06:38:55.784Z,0.435
2022-09-12T06:39:58.863Z,0.435
2022-09-12T06:41:34.083Z,0.435
2022-09-12T06:42:37.135Z,0.435
2022-09-12T06:43:39.981Z,0.435
2022-09-12T06:45:15.036Z,0.435
2022-09-12T06:46:18.761Z,0.435
2022-09-12T06:47:21.689Z,0.435
2022-09-12T06:49:01.233Z,0.435
2022-09-12T06:50:04.470Z,0.585
2022-09-12T06:51:07.335Z,0.735
2022-09-12T06:52:42.097Z,0.585
2022-09-12T06:53:44.921Z,0.585
2022-09-12T06:54:47.914Z,0.735
2022-09-12T06:56:30.964Z,0.735
2022-09-12T06:57:33.885Z,0.735
2022-09-12T06:58:36.782Z,0.885
2022-09-12T07:00:39.787Z,1.02
2022-09-12T07:01:43.421Z,0.885
2022-09-12T07:02:46.860Z,0.885
2022-09-12T07:04:21.742Z,1.02
2022-09-12T07:05:24.732Z,1.02
2022-09-12T07:06:27.809Z,1.17
2022-09-12T07:08:02.735Z,1.17
2022-09-12T07:09:05.571Z,1.17
2022-09-12T07:10:08.533Z,1.17
2022-09-12T07:11:43.705Z,1.32
2022-09-12T07:12:46.671Z,1.32
2022-09-12T07:13:49.660Z,1.32
2022-09-12T07:15:24.598Z,1.32
2022-09-12T07:16:31.642Z,1.32
2022-09-12T07:17:34.535Z,1.32
2022-09-12T07:19:09.386Z,1.32
2022-09-12T07:20:12.363Z,1.47
2022-09-12T07:21:15.268Z,1.32
2022-09-12T07:22:50.244Z,1.47
2022-09-12T07:23:53.685Z,1.47
2022-09-12T07:24:56.609Z,1.47
2022-09-12T07:26:31.712Z,1.47
2022-09-12T07:27:34.582Z,1.755
2022-09-12T07:28:37.392Z,1.905
2022-09-12T07:30:46.442Z,1.905
2022-09-12T07:31:49.343Z,1.905
2022-09-12T07:32:52.268Z,1.905
2022-09-12T07:34:27.163Z,2.055
2022-09-12T07:35:30.140Z,1.905
2022-09-12T07:36:33.292Z,1.905
2022-09-12T07:38:08.122Z,1.755
2022-09-12T07:39:14.599Z,1.47
2022-09-12T07:40:17.898Z,1.47
2022-09-12T07:41:52.992Z,1.47
2022-09-12T07:42:56.086Z,1.47
2022-09-12T07:43:59.483Z,1.47
2022-09-12T07:45:34.403Z,1.47
2022-09-12T07:46:37.764Z,1.32
2022-09-12T07:47:40.812Z,1.47
2022-09-12T07:49:15.864Z,1.32
2022-09-12T07:50:18.621Z,1.47
2022-09-12T07:51:21.758Z,1.32
2022-09-12T07:52:56.329Z,1.32
2022-09-12T07:53:59.498Z,1.47
2022-09-12T07:55:02.433Z,1.47
2022-09-12T07:56:45.085Z,1.47
2022-09-12T07:57:47.974Z,1.47
2022-09-12T07:58:51.043Z,1.47
2022-09-12T08:00:40.548Z,1.47
2022-09-12T08:01:44.097Z,1.755
2022-09-12T08:02:47.560Z,2.34
2022-09-12T08:04:22.422Z,2.49
2022-09-12T08:05:25.403Z,2.49
2022-09-12T08:06:28.367Z,2.79
2022-09-12T08:08:08.948Z,1.47
2022-09-12T08:09:11.694Z,1.47
2022-09-12T08:10:14.471Z,1.47
2022-09-12T08:11:49.226Z,1.47
2022-09-12T08:12:52.113Z,1.755
2022-09-12T08:14:00.783Z,2.34
2022-09-12T08:15:35.963Z,2.64
2022-09-12T08:16:39.235Z,2.34
2022-09-12T08:17:42.300Z,2.19
2022-09-12T08:19:16.940Z,2.34
2022-09-12T08:20:19.889Z,2.34
2022-09-12T08:21:23.132Z,2.19
2022-09-12T08:22:58.340Z,2.19
2022-09-12T08:24:01.260Z,2.19
2022-09-12T08:25:04.137Z,2.34
2022-09-12T08:26:39.079Z,2.49
2022-09-12T08:27:42.081Z,2.34
2022-09-12T08:28:44.813Z,2.34
2022-09-12T08:30:19.657Z,2.49
2022-09-12T08:31:23.264Z,2.34
2022-09-12T08:32:26.098Z,2.34
2022-09-12T08:34:01.286Z,2.49
2022-09-12T08:35:04.262Z,2.34
2022-09-12T08:36:07.333Z,2.19
2022-09-12T08:37:42.445Z,2.19
2022-09-12T08:38:45.584Z,1.755
2022-09-12T08:39:48.743Z,2.055
2022-09-12T08:41:24.028Z,2.19
2022-09-12T08:42:28.010Z,2.34
2022-09-12T08:43:30.851Z,2.19
2022-09-12T08:45:11.075Z,2.34
2022-09-12T08:46:14.291Z,2.19
2022-09-12T08:47:17.319Z,2.34
2022-09-12T08:48:52.285Z,2.49
2022-09-12T08:49:55.248Z,2.49
2022-09-12T08:51:01.336Z,2.64
2022-09-12T08:52:36.086Z,2.64
2022-09-12T08:53:39.194Z,2.64
2022-09-12T08:54:42.362Z,2.64
2022-09-12T08:56:17.420Z,2.64
2022-09-12T08:57:20.406Z,2.79
2022-09-12T08:58:23.670Z,2.64
2022-09-12T08:59:58.386Z,2.79
2022-09-12T09:00:40.214Z,2.64
2022-09-12T09:01:43.935Z,2.64
2022-09-12T09:02:48.032Z,2.79
2022-09-12T09:04:25.745Z,2.79
2022-09-12T09:05:31.548Z,2.79
2022-09-12T09:06:34.518Z,2.79
2022-09-12T09:08:09.630Z,2.79
2022-09-12T09:09:12.496Z,2.79
2022-09-12T09:10:15.503Z,2.925
2022-09-12T09:11:50.482Z,3.075
2022-09-12T09:12:53.518Z,3.075
2022-09-12T09:13:56.391Z,3.075
2022-09-12T09:15:31.361Z,2.925
2022-09-12T09:16:34.762Z,2.79
2022-09-12T09:17:37.667Z,2.64
2022-09-12T09:19:12.444Z,2.925
2022-09-12T09:20:19.253Z,2.925
2022-09-12T09:21:22.264Z,2.925
2022-09-12T09:22:59.418Z,2.925
2022-09-12T09:24:02.613Z,2.925
2022-09-12T09:25:05.688Z,3.075
2022-09-12T09:26:41.699Z,3.075
2022-09-12T09:28:07.622Z,3.075
2022-09-12T09:29:10.450Z,3.075
2022-09-12T09:30:45.502Z,3.075
2022-09-12T09:31:48.790Z,3.075
2022-09-12T09:32:51.730Z,3.075
2022-09-12T09:34:26.587Z,3.075
2022-09-12T09:35:34.332Z,3.075
2022-09-12T09:36:39.329Z,2.79
2022-09-12T09:38:20.671Z,2.925
2022-09-12T09:39:23.828Z,2.925
2022-09-12T09:40:27.391Z,3.075
2022-09-12T09:42:02.488Z,3.075
2022-09-12T09:43:05.638Z,3.075
2022-09-12T09:44:08.930Z,3.075
2022-09-12T09:45:47.320Z,3.075
2022-09-12T09:46:51.519Z,3.075
2022-09-12T09:47:54.497Z,3.075
2022-09-12T09:49:30.753Z,3.075
2022-09-12T09:50:33.863Z,3.075
2022-09-12T09:51:36.866Z,3.075
2022-09-12T09:53:14.684Z,3.225
2022-09-12T09:54:17.451Z,3.225
2022-09-12T09:55:20.419Z,3.075
2022-09-12T09:56:55.506Z,3.225
2022-09-12T09:57:58.530Z,3.51
2022-09-12T09:59:01.802Z,3.66
2022-09-12T10:00:41.087Z,3.51
2022-09-12T10:01:44.538Z,3.51
2022-09-12T10:02:52.566Z,3.075
2022-09-12T10:04:28.534Z,3.225
2022-09-12T10:05:31.549Z,3.225
2022-09-12T10:06:34.805Z,3.225
2022-09-12T10:08:09.759Z,3.81
2022-09-12T10:09:12.854Z,3.81
2022-09-12T10:10:15.834Z,3.66
2022-09-12T10:11:57.035Z,3.075
2022-09-12T10:12:59.957Z,3.075
2022-09-12T10:14:02.918Z,3.075
2022-09-12T10:15:37.869Z,3.225
2022-09-12T10:16:41.370Z,3.075
2022-09-12T10:17:50.837Z,3.51
2022-09-12T10:19:25.661Z,3.51
2022-09-12T10:20:48.771Z,3.66
2022-09-12T10:21:52.996Z,3.66
2022-09-12T10:23:27.972Z,3.225
2022-09-12T10:24:31.101Z,3.51
2022-09-12T10:25:34.234Z,3.225
2022-09-12T10:27:13.853Z,3.66
2022-09-12T10:28:16.562Z,3.66
2022-09-12T10:29:19.441Z,3.66
2022-09-12T10:30:54.911Z,3.225
2022-09-12T10:31:57.977Z,3.225
2022-09-12T10:33:01.150Z,3.225
2022-09-12T10:34:36.135Z,3.075
2022-09-12T10:35:39.276Z,3.225
2022-09-12T10:36:42.259Z,3.51
2022-09-12T10:38:20.467Z,3.81
2022-09-12T10:39:23.622Z,3.81
2022-09-12T10:40:27.515Z,3.66
2022-09-12T10:42:02.392Z,3.66
2022-09-12T10:43:05.466Z,3.81
2022-09-12T10:44:08.967Z,3.81
2022-09-12T10:45:44.094Z,3.81
2022-09-12T10:46:47.237Z,3.66
2022-09-12T10:47:50.285Z,3.66
2022-09-12T10:49:25.648Z,3.51
2022-09-12T10:50:39.593Z,3.81
2022-09-12T10:51:42.669Z,3.81
2022-09-12T10:53:17.845Z,3.51
2022-09-12T10:54:20.908Z,3.51
2022-09-12T10:55:24.030Z,3.51
2022-09-12T10:56:59.137Z,3.66
2022-09-12T10:58:02.254Z,3.51
2022-09-12T10:59:05.556Z,3.66
2022-09-12T11:00:40.885Z,3.66
2022-09-12T11:01:44.664Z,3.51
2022-09-12T11:02:48.372Z,3.225
2022-09-12T11:04:23.389Z,3.51
2022-09-12T11:05:32.144Z,3.66
2022-09-12T11:06:35.136Z,3.81
2022-09-12T11:08:10.008Z,3.66
2022-09-12T11:09:12.930Z,3.81
2022-09-12T11:10:15.942Z,3.81
2022-09-12T11:11:55.708Z,3.81
2022-09-12T11:12:58.768Z,3.66
2022-09-12T11:14:02.062Z,3.66
2022-09-12T11:15:37.247Z,3.66
2022-09-12T11:16:42.968Z,3.66
2022-09-12T11:17:46.362Z,3.66
2022-09-12T11:19:21.252Z,3.81
2022-09-12T11:20:24.299Z,3.81
2022-09-12T11:21:27.248Z,4.095
2022-09-12T11:23:02.044Z,4.095
2022-09-12T11:24:05.067Z,4.095
2022-09-12T11:25:08.071Z,4.545
2022-09-12T11:26:43.147Z,4.545
2022-09-12T11:27:46.255Z,4.545
2022-09-12T11:28:52.941Z,4.695
2022-09-12T11:30:27.747Z,4.695
2022-09-12T11:31:31.122Z,4.545
2022-09-12T11:32:34.405Z,4.395
2022-09-12T11:34:13.924Z,4.095
2022-09-12T11:35:23.111Z,4.095
2022-09-12T11:36:26.187Z,3.96
2022-09-12T11:38:01.068Z,3.96
2022-09-12T11:39:04.523Z,3.96
2022-09-12T11:40:13.078Z,3.81
2022-09-12T11:41:48.196Z,3.81
2022-09-12T11:42:51.202Z,3.66
2022-09-12T11:43:54.453Z,3.225
2022-09-12T11:45:29.407Z,3.66
2022-09-12T11:46:33.192Z,3.225
2022-09-12T11:47:36.160Z,3.225
2022-09-12T11:49:11.396Z,3.225
2022-09-12T11:50:14.474Z,3.075
2022-09-12T11:51:17.603Z,2.925
2022-09-12T11:52:52.503Z,2.64
2022-09-12T11:53:55.657Z,2.34
2022-09-12T11:55:04.749Z,2.49
2022-09-12T11:56:39.910Z,2.64
2022-09-12T11:57:43.062Z,2.64
2022-09-12T11:58:46.600Z,2.49
2022-09-12T12:00:40.250Z,2.64
2022-09-12T12:01:50.793Z,2.925
2022-09-12T12:02:54.385Z,3.075
2022-09-12T12:04:29.930Z,3.075
2022-09-12T12:05:33.405Z,3.225
2022-09-12T12:06:36.543Z,3.225
2022-09-12T12:08:14.081Z,2.64
2022-09-12T12:09:17.428Z,2.34
2022-09-12T12:10:20.318Z,2.34
2022-09-12T12:11:55.233Z,2.49
2022-09-12T12:12:58.383Z,2.49
2022-09-12T12:14:01.461Z,2.34
2022-09-12T12:15:36.610Z,2.34
2022-09-12T12:16:39.992Z,2.34
2022-09-12T12:17:43.139Z,2.34
2022-09-12T12:19:22.098Z,2.34
2022-09-12T12:20:31.696Z,2.49
2022-09-12T12:21:34.779Z,2.49
2022-09-12T12:23:09.607Z,2.49
2022-09-12T12:24:12.658Z,2.34
2022-09-12T12:25:20.835Z,2.49
2022-09-12T12:26:56.816Z,2.34
2022-09-12T12:28:00.049Z,2.34
2022-09-12T12:29:03.711Z,2.34
2022-09-12T12:30:43.559Z,2.34
2022-09-12T12:31:46.926Z,2.19
2022-09-12T12:32:50.049Z,2.19
2022-09-12T12:34:25.077Z,2.34
2022-09-12T12:35:28.217Z,2.19
2022-09-12T12:36:31.148Z,2.34
2022-09-12T12:38:10.523Z,2.34
2022-09-12T12:39:13.701Z,2.34
2022-09-12T12:40:17.526Z,2.49
2022-09-12T12:41:52.713Z,2.34
2022-09-12T12:42:55.961Z,2.34
2022-09-12T12:43:59.530Z,2.19
2022-09-12T12:45:34.628Z,2.34
2022-09-12T12:46:38.472Z,2.19
2022-09-12T12:47:41.723Z,2.34
2022-09-12T12:49:22.545Z,2.34
2022-09-12T12:50:25.672Z,2.19
2022-09-12T12:51:28.858Z,2.49
2022-09-12T12:53:03.841Z,2.34
2022-09-12T12:54:12.329Z,2.34
2022-09-12T12:55:16.218Z,2.34
2022-09-12T12:56:51.400Z,2.34
2022-09-12T12:57:54.711Z,2.19
2022-09-12T12:58:58.015Z,2.19
2022-09-12T13:00:41.299Z,2.19
2022-09-12T13:01:44.789Z,2.34
2022-09-12T13:02:48.581Z,2.34
2022-09-12T13:04:23.798Z,2.19
2022-09-12T13:05:27.037Z,2.34
2022-09-12T13:06:30.234Z,2.64
2022-09-12T13:08:11.007Z,2.64
2022-09-12T13:09:14.176Z,2.79
2022-09-12T13:10:17.434Z,2.79
2022-09-12T13:11:57.464Z,2.79
2022-09-12T13:13:00.507Z,2.925
2022-09-12T13:14:03.593Z,2.925
2022-09-12T13:15:38.662Z,2.64
2022-09-12T13:16:42.207Z,2.925
2022-09-12T13:17:45.313Z,2.925
2022-09-12T13:19:24.175Z,2.925
2022-09-12T13:20:55.275Z,2.925
2022-09-12T13:21:58.297Z,2.925
2022-09-12T13:23:33.348Z,2.925
2022-09-12T13:24:36.443Z,2.925
2022-09-12T13:25:39.793Z,2.925
2022-09-12T13:27:15.130Z,2.925
2022-09-12T13:28:18.169Z,2.925
2022-09-12T13:29:21.360Z,2.925
2022-09-12T13:30:57.184Z,2.79
2022-09-12T13:32:04.606Z,2.79
2022-09-12T13:33:07.685Z,2.79
2022-09-12T13:34:42.873Z,2.64
2022-09-12T13:35:46.153Z,2.79
2022-09-12T13:36:49.335Z,2.79
2022-09-12T13:38:24.339Z,2.64
2022-09-12T13:39:27.462Z,2.64
2022-09-12T13:40:31.122Z,2.64
2022-09-12T13:42:06.440Z,2.79
2022-09-12T13:43:09.523Z,2.79
2022-09-12T13:44:12.658Z,2.79
2022-09-12T13:45:48.056Z,2.64
2022-09-12T13:46:51.344Z,2.64
2022-09-12T13:47:58.564Z,2.79
2022-09-12T13:49:34.073Z,2.925
2022-09-12T13:50:37.167Z,2.925
2022-09-12T13:51:40.266Z,2.79
2022-09-12T13:53:15.339Z,2.925
2022-09-12T13:54:22.526Z,2.79
2022-09-12T13:55:27.515Z,2.79
2022-09-12T13:57:02.464Z,2.79
2022-09-12T13:58:05.558Z,2.79
2022-09-12T13:59:08.930Z,2.925
2022-09-12T14:00:40.787Z,2.925
2022-09-12T14:01:44.376Z,2.925
2022-09-12T14:02:48.399Z,2.925
2022-09-12T14:04:27.111Z,2.79
2022-09-12T14:05:30.148Z,2.79
2022-09-12T14:06:33.498Z,2.925
2022-09-12T14:08:08.859Z,2.925
2022-09-12T14:09:12.009Z,2.64
2022-09-12T14:10:15.238Z,2.64
2022-09-12T14:11:50.410Z,2.79
2022-09-12T14:12:53.468Z,2.925
2022-09-12T14:13:56.698Z,2.79
2022-09-12T14:15:32.046Z,2.79
2022-09-12T14:16:35.626Z,2.79
2022-09-12T14:17:46.620Z,2.925
2022-09-12T14:19:21.917Z,2.925
2022-09-12T14:20:24.925Z,2.925
2022-09-12T14:21:28.203Z,2.79
2022-09-12T14:23:08.088Z,2.79
2022-09-12T14:24:11.193Z,2.79
2022-09-12T14:25:14.362Z,2.79
2022-09-12T14:26:49.612Z,2.64
2022-09-12T14:27:52.833Z,2.79
2022-09-12T14:28:55.966Z,2.79
2022-09-12T14:30:31.474Z,2.64
2022-09-12T14:31:35.762Z,2.64
2022-09-12T14:32:38.760Z,2.34
2022-09-12T14:34:13.833Z,2.34
2022-09-12T14:35:17.113Z,2.49
2022-09-12T14:36:20.267Z,2.49
2022-09-12T14:37:55.414Z,2.34
2022-09-12T14:38:58.864Z,2.49
2022-09-12T14:40:02.775Z,2.34
2022-09-12T14:41:38.518Z,2.49
2022-09-12T14:42:41.646Z,2.34
2022-09-12T14:43:44.814Z,2.49
2022-09-12T14:45:20.134Z,2.19
2022-09-12T14:46:23.776Z,2.19
2022-09-12T14:47:26.888Z,1.905
2022-09-12T14:49:02.057Z,1.905
2022-09-12T14:50:08.255Z,2.055
2022-09-12T14:51:14.242Z,1.905
2022-09-12T14:52:54.272Z,1.905
2022-09-12T14:53:57.832Z,1.905
2022-09-12T14:55:00.983Z,2.055
2022-09-12T14:56:35.931Z,2.055
2022-09-12T14:57:38.886Z,1.905
2022-09-12T14:58:41.889Z,1.905
2022-09-12T15:00:40.434Z,1.905
2022-09-12T15:01:44.151Z,1.905
2022-09-12T15:02:47.399Z,1.905
2022-09-12T15:04:23.671Z,1.755
2022-09-12T15:05:26.689Z,1.905
2022-09-12T15:06:29.867Z,1.755
2022-09-12T15:08:05.510Z,1.47
2022-09-12T15:09:08.819Z,1.47
2022-09-12T15:10:15.892Z,1.47
2022-09-12T15:11:50.864Z,1.47
2022-09-12T15:12:54.047Z,1.47
2022-09-12T15:13:57.301Z,1.47
2022-09-12T15:15:32.472Z,1.47
2022-09-12T15:16:36.403Z,1.47
2022-09-12T15:17:39.628Z,1.47
2022-09-12T15:19:20.655Z,1.905
2022-09-12T15:20:24.086Z,1.905
2022-09-12T15:21:27.257Z,1.905
2022-09-12T15:23:02.513Z,1.905
2022-09-12T15:24:06.058Z,2.055
2022-09-12T15:25:09.438Z,2.055
2022-09-12T15:26:44.601Z,1.905
2022-09-12T15:27:47.785Z,1.905
2022-09-12T15:28:51.228Z,1.905
2022-09-12T15:30:26.456Z,1.905
2022-09-12T15:31:30.189Z,2.055
2022-09-12T15:32:33.584Z,1.905
2022-09-12T15:34:09.038Z,1.755
2022-09-12T15:35:12.230Z,1.755
2022-09-12T15:36:15.396Z,1.47
2022-09-12T15:37:50.507Z,1.47
2022-09-12T15:38:55.320Z,1.47
2022-09-12T15:39:58.991Z,1.32
2022-09-12T15:41:34.373Z,1.47
2022-09-12T15:42:37.569Z,1.32
2022-09-12T15:43:41.269Z,1.32
2022-09-12T15:45:19.828Z,1.17
2022-09-12T15:46:23.632Z,1.32
2022-09-12T15:47:26.968Z,1.17
2022-09-12T15:49:02.086Z,1.17
2022-09-12T15:50:05.321Z,1.32
2022-09-12T15:51:10.652Z,1.17
2022-09-12T15:52:48.666Z,1.17
2022-09-12T15:53:52.421Z,1.17
2022-09-12T15:54:55.901Z,1.17
2022-09-12T15:56:31.070Z,1.17
2022-09-12T15:57:34.350Z,1.17
2022-09-12T15:58:49.766Z,1.17
2022-09-12T16:00:41.194Z,1.02
2022-09-12T16:01:44.798Z,1.17
2022-09-12T16:02:48.745Z,1.17
2022-09-12T16:04:26.907Z,1.17
2022-09-12T16:06:10.337Z,1.02
2022-09-12T16:07:13.370Z,0.885
2022-09-12T16:08:16.279Z,1.02
2022-09-12T16:09:51.889Z,0.885
2022-09-12T16:10:55.272Z,1.02
2022-09-12T16:11:58.516Z,0.885
2022-09-12T16:13:33.504Z,0.885
2022-09-12T16:14:36.567Z,1.02
2022-09-12T16:15:39.576Z,0.885
2022-09-12T16:17:15.134Z,0.885
2022-09-12T16:18:18.074Z,0.885
2022-09-12T16:19:21.167Z,0.735
2022-09-12T16:20:55.854Z,0.735
2022-09-12T16:21:59.050Z,0.735
2022-09-12T16:23:02.204Z,0.585
2022-09-12T16:24:37.156Z,0.735
2022-09-12T16:25:40.929Z,0.735
2022-09-12T16:26:44.472Z,0.735
2022-09-12T16:28:19.716Z,0.585
2022-09-12T16:29:22.844Z,0.585
2022-09-12T16:30:25.943Z,0.585
2022-09-12T16:32:01.361Z,0.585
2022-09-12T16:33:04.620Z,0.585
2022-09-12T16:34:07.885Z,0.585
2022-09-12T16:35:43.059Z,0.585
2022-09-12T16:36:45.800Z,0.585
2022-09-12T16:37:48.760Z,0.585
2022-09-12T16:39:23.562Z,0.435
2022-09-12T16:40:27.345Z,0.585
2022-09-12T16:41:30.326Z,0.435
2022-09-12T16:43:11.319Z,0.435
2022-09-12T16:44:14.333Z,0.435
2022-09-12T16:45:17.222Z,0.585
2022-09-12T16:46:52.880Z,0.435
2022-09-12T16:47:55.921Z,0.435
2022-09-12T16:49:03.905Z,0.435
2022-09-12T16:50:38.841Z,0.435
2022-09-12T16:51:41.986Z,0.435
2022-09-12T16:52:45.001Z,0.435
2022-09-12T16:54:20.001Z,0.435
2022-09-12T16:55:22.904Z,0.435
2022-09-12T16:56:25.865Z,0.435
2022-09-12T16:58:00.855Z,0.435
2022-09-12T16:59:16.354Z,0.435